Česky Dansk Deutsch English Español Suomi Français Magyar Italiano Nederlands norsk Polski Português svenska Türkçe

 

Het Weer

Madinah (Saudi-Arabië)

12:00, 7 augustus 2016 (GMT)

NWNNE
WE
SWSSE
Home            
Madinah Yenbo Jeddah King Abdul Aziz International Airport Jeddah Makkah Taif Wejh Hail Gassim Dawadmi Al Baha Tabuk Al-Jouf Bisha Port Sudan Port Sudan International Sharm El Sheikhintl Hurguada Rafha Hafr Al-Batin Asswan King Khaled International Airport Riyadh

Om een weerknop op uw website of weblog te plaatsen, copieer onderstaande code en plak die in uw pagina. In het eerste vakje staat HTML-code, in het tweede vakje UBB-code.


Add to Google

Details

Wind speed:2 bf, 4 kn, 2.1 m/s, 4.6 miles/h, 7.4 km/h
Wind direction:WNW, 300°
Visibility: 9000 m, 9.0 km, 29528 ft, 5.6 miles
Clouds:Ein wenig bewölkt at 4500 ft, 1372 m
Temperature:46°C, 115°F
Gefühlte Temperatur:41°C, 106°F
Dew-point:-1°C, 30°F
Atmospheric pressure:1006 hPa, 754.6 mmHg, 29.71 inHg, 0.993 atm
Relative humidity:5.6 %
METAR:OEMA 071200Z 30004KT 9000 FEW045 46/M01 Q1006 NOSIG

Snelkoppelingen

Actuele weersinformatie van de hele wereld. Voeg locaties toe met het plus (+) symbool. Deze snelkoppelingen kunnen worden toegevoegd aan Google.

Lid van de Technetium groep

website free tracking
StatCounter NetStat W3C Validator

17-04-2021 03:28:33
astro.technetium.be money.technetium.be phote.technetium.be tafeltennistafel.technetium.be www.ligfiets.net